This is the latest recevied weather packets stored in our database for station/object HS2LXA-WX. If no packets are shown the sender has not sent any weather packets the latest 10 day(s).
| Time | Temp. | Humidity | Pressure | Rain* | Wind** | Luminosity | Snow |
|---|---|---|---|---|---|---|---|
| 1777787893 | 34.44° C | 61% | 1013.2 hPa | 0 mm | - | - | - |
| 1777787290 | 34.44° C | 62% | 1013.2 hPa | 0 mm | - | - | - |
| 1777785830 | 35° C | 57% | 1013.2 hPa | 0 mm | - | - | - |
| 1777785230 | 37.22° C | 53% | 1013.2 hPa | 0 mm | - | - | - |
| 1777784630 | 37.22° C | 55% | 1013.1 hPa | 0 mm | - | - | - |
| 1777784025 | 37.22° C | 54% | 1013.2 hPa | 0 mm | - | - | - |
| 1777783427 | 36.67° C | 54% | 1013.1 hPa | 0 mm | - | - | - |
| 1777782777 | 36.67° C | 55% | 1013.2 hPa | 0 mm | - | - | - |
| 1777782177 | 36.67° C | 55% | 1013.1 hPa | 0 mm | - | - | - |
| 1777781577 | 36.67° C | 55% | 1013.2 hPa | 0 mm | - | - | - |
| 1777780977 | 36.11° C | 57% | 1013.2 hPa | 0 mm | - | - | - |
| 1777780372 | 36.11° C | 57% | 1013.1 hPa | 0 mm | - | - | - |
| 1777779773 | 35.56° C | 59% | 1013.1 hPa | 0 mm | - | - | - |
| 1777778384 | 34.44° C | 63% | 1013.2 hPa | 0 mm | - | - | - |
| 1777777784 | 34.44° C | 65% | 1013.2 hPa | 0 mm | - | - | - |
| 1777777184 | 34.44° C | 66% | 1013.1 hPa | 0 mm | - | - | - |
| 1777776584 | 34.44° C | 65% | 1013.2 hPa | 0 mm | - | - | - |
| 1777775639 | 33.33° C | 67% | 1013.1 hPa | 0 mm | - | - | - |
| 1777775039 | 33.33° C | 67% | 1013.2 hPa | 0 mm | - | - | - |
| 1777774439 | 33.33° C | 67% | 1013.2 hPa | 0 mm | - | - | - |
| 1777773838 | 33.33° C | 70% | 1013.2 hPa | 0 mm | - | - | - |
| 1777773238 | 32.78° C | 71% | 1013.1 hPa | 0 mm | - | - | - |
| 1777772638 | 33.33° C | 67% | 1013.1 hPa | 0 mm | - | - | - |
| 1777772038 | 33.33° C | 67% | 1013.1 hPa | 0 mm | - | - | - |
| 1777771129 | 33.33° C | 68% | 1013.1 hPa | 0 mm | - | - | - |
* Rain latest hour (hover to see other rain measurements)
** Current wind speed in m/s (hover to see current wind gust speed)